Time;durP1;ratioP1;P1;durP2;ratioP2;P2;SDS_P1;SDS_P2;PMS_P1;PMS_P2;Temp;Humidity;BMP_temperature;BMP_pressure;BME280_temperature;BME280_humidity;BME280_pressure;Samples;Min_cycle;Max_cycle;Signal;HPM_P1;HPM_P2
2022/12/05 00:00:23;;;;;;;30.00;18.17;;;5.10;77.00;;;;;;5064552;28;20040;-71
2022/12/05 00:02:49;;;;;;;28.58;17.77;;;5.00;77.00;;;;;;5092812;27;20039;-71
2022/12/05 00:05:15;;;;;;;27.60;17.75;;;5.00;77.00;;;;;;5118627;27;20070;-71
2022/12/05 00:07:40;;;;;;;27.80;17.05;;;5.00;77.00;;;;;;5118254;27;20039;-71
2022/12/05 00:10:06;;;;;;;31.05;18.60;;;5.10;77.10;;;;;;5117725;27;20122;-71
2022/12/05 00:12:32;;;;;;;25.70;16.50;;;5.10;77.10;;;;;;5097948;28;20071;-71
2022/12/05 00:14:58;;;;;;;27.25;17.73;;;5.10;77.10;;;;;;5100186;27;20498;-79
2022/12/05 00:17:23;;;;;;;27.35;16.85;;;5.10;77.10;;;;;;5072556;28;20066;-79
2022/12/05 00:19:49;;;;;;;28.15;17.45;;;5.10;77.10;;;;;;5098378;28;20112;-79
2022/12/05 00:22:15;;;;;;;26.73;16.95;;;5.10;77.10;;;;;;5098449;28;20040;-79
2022/12/05 00:24:41;;;;;;;25.95;16.67;;;5.20;77.20;;;;;;5097226;27;20103;-78
2022/12/05 00:27:06;;;;;;;24.50;16.05;;;5.10;77.10;;;;;;5101552;27;20058;-79
2022/12/05 00:29:32;;;;;;;28.67;16.15;;;5.10;77.10;;;;;;5118666;27;20067;-78
2022/12/05 00:31:58;;;;;;;26.75;16.25;;;5.10;77.10;;;;;;5118674;27;20039;-79
2022/12/05 00:34:23;;;;;;;23.52;14.93;;;5.20;77.10;;;;;;5118152;27;20050;-78
2022/12/05 00:36:49;;;;;;;26.67;16.45;;;5.20;77.10;;;;;;5118507;27;20046;-78
2022/12/05 00:39:15;;;;;;;26.70;16.23;;;5.10;77.10;;;;;;5117890;27;20039;-71
2022/12/05 00:41:42;;;;;;;24.85;15.95;;;5.10;77.10;;;;;;5101156;27;20050;-71
2022/12/05 00:44:10;;;;;;;26.48;15.57;;;5.20;77.20;;;;;;5117739;27;20050;-71
2022/12/05 00:46:36;;;;;;;25.33;16.08;;;5.20;77.20;;;;;;5117903;27;20054;-71
2022/12/05 00:49:03;;;;;;;28.45;16.73;;;5.20;77.60;;;;;;5101086;27;20054;-71
2022/12/05 00:51:32;;;;;;;30.08;18.13;;;5.20;77.20;;;;;;5117234;27;20027;-72
2022/12/05 00:54:00;;;;;;;25.48;17.38;;;5.20;77.30;;;;;;5100110;27;20088;-71
2022/12/05 00:56:27;;;;;;;26.85;16.80;;;5.20;77.30;;;;;;5117916;27;20089;-79
2022/12/05 00:58:55;;;;;;;27.35;17.27;;;5.20;77.30;;;;;;5118028;27;20047;-79
2022/12/05 01:01:31;;;;;;;26.38;16.27;;;5.20;77.30;;;;;;5118225;27;20047;-79
2022/12/05 01:03:59;;;;;;;29.50;16.48;;;5.20;77.30;;;;;;5117716;27;20059;-78
2022/12/05 01:06:26;;;;;;;27.02;17.88;;;5.20;77.30;;;;;;5101064;27;20516;-79
2022/12/05 01:08:53;;;;;;;26.50;17.15;;;5.20;77.30;;;;;;5117779;27;20114;-79
2022/12/05 01:11:20;;;;;;;26.98;17.10;;;5.20;77.30;;;;;;5117984;27;20035;-79
2022/12/05 01:13:46;;;;;;;28.92;17.50;;;5.20;77.30;;;;;;5114548;27;20039;-79
2022/12/05 01:16:27;;;;;;;27.10;17.45;;;5.20;77.30;;;;;;5119790;27;20511;-79
2022/12/05 01:18:54;;;;;;;28.88;18.25;;;5.20;77.40;;;;;;5119458;27;20070;-78
2022/12/05 01:21:20;;;;;;;28.08;17.60;;;5.20;77.50;;;;;;5117274;27;20121;-79
2022/12/05 01:23:46;;;;;;;28.13;18.23;;;5.20;77.50;;;;;;5111449;28;20039;-78
2022/12/05 01:26:13;;;;;;;26.70;16.48;;;5.30;77.50;;;;;;5080373;28;20035;-79
2022/12/05 01:28:40;;;;;;;28.17;18.13;;;5.30;77.60;;;;;;5081805;27;20490;-79
2022/12/05 01:31:09;;;;;;;28.27;17.52;;;5.30;77.60;;;;;;5117272;27;20038;-78
2022/12/05 01:33:35;;;;;;;27.85;17.55;;;5.30;77.60;;;;;;5117173;27;20070;-79
2022/12/05 01:36:02;;;;;;;30.05;17.67;;;5.30;77.70;;;;;;5117242;27;20046;-78
2022/12/05 01:38:28;;;;;;;29.65;18.35;;;5.30;77.80;;;;;;5100317;27;20095;-79
2022/12/05 01:41:05;;;;;;;26.58;17.58;;;5.30;77.80;;;;;;5117079;27;20489;-78
2022/12/05 01:43:31;;;;;;;27.40;17.27;;;5.30;77.90;;;;;;5117060;27;20076;-79
2022/12/05 01:45:57;;;;;;;29.70;17.50;;;5.30;77.90;;;;;;5117350;27;20107;-78
2022/12/05 01:48:34;;;;;;;29.15;17.83;;;5.30;77.90;;;;;;5116899;27;20043;-79
2022/12/05 01:51:01;;;;;;;25.63;17.60;;;5.40;78.00;;;;;;5117135;27;20050;-79
2022/12/05 01:53:28;;;;;;;29.45;17.15;;;5.30;78.00;;;;;;5099923;27;20039;-79
2022/12/05 01:55:54;;;;;;;29.42;18.30;;;5.40;78.10;;;;;;5116393;27;20031;-78
2022/12/05 01:58:21;;;;;;;28.15;17.70;;;5.40;78.10;;;;;;5099318;27;20371;-79
2022/12/05 02:00:47;;;;;;;30.33;18.10;;;5.40;78.20;;;;;;5099811;27;20058;-78
2022/12/05 02:03:18;;;;;;;35.15;19.75;;;5.40;78.20;;;;;;5098143;27;20043;-78
2022/12/05 02:05:48;;;;;;;32.42;18.67;;;5.50;78.40;;;;;;5116669;27;20039;-78
2022/12/05 02:08:15;;;;;;;34.30;20.27;;;5.40;78.40;;;;;;5116514;27;20039;-78
2022/12/05 02:10:50;;;;;;;35.85;21.92;;;5.40;78.40;;;;;;5116291;27;20043;-79
2022/12/05 02:13:16;;;;;;;38.28;21.40;;;5.40;78.70;;;;;;5116489;27;20039;-79
2022/12/05 02:15:41;;;;;;;36.10;22.27;;;5.40;78.70;;;;;;5116663;27;20050;-78
2022/12/05 02:18:32;;;;;;;41.58;23.92;;;5.40;78.70;;;;;;5115986;27;20039;-71
2022/12/05 02:21:16;;;;;;;41.80;22.58;;;5.50;79.00;;;;;;5095728;28;20046;-71
2022/12/05 02:23:47;;;;;;;39.67;22.90;;;5.50;79.10;;;;;;5103243;27;20139;-71
2022/12/05 02:26:22;;;;;;;39.67;22.65;;;5.60;79.30;;;;;;5116054;27;20436;-71
2022/12/05 02:28:54;;;;;;;;;;;5.50;79.20;;;;;;5134284;27;20043;-71
2022/12/05 02:31:28;;;;;;;42.70;23.15;;;5.50;79.30;;;;;;5099453;27;20372;-78
2022/12/05 02:34:20;;;;;;;38.13;21.45;;;5.60;79.50;;;;;;5116472;27;20508;-78
2022/12/05 02:36:59;;;;;;;40.88;22.95;;;5.50;79.40;;;;;;5116130;27;20038;-79
2022/12/05 02:39:56;;;;;;;37.53;22.15;;;5.60;79.60;;;;;;5115612;27;20508;-79
2022/12/05 02:42:53;;;;;;;41.58;23.33;;;5.60;79.80;;;;;;5098851;27;20126;-79
2022/12/05 02:45:20;;;;;;;39.97;23.02;;;5.60;79.90;;;;;;5111858;28;20047;-78
2022/12/05 02:47:49;;;;;;;38.60;22.00;;;5.60;79.90;;;;;;5112763;28;20043;-78
2022/12/05 02:50:21;;;;;;;42.80;22.55;;;5.60;80.10;;;;;;5095576;28;20046;-78
2022/12/05 02:52:49;;;;;;;40.92;23.05;;;5.60;80.20;;;;;;5108805;28;20039;-78
2022/12/05 02:55:17;;;;;;;42.03;24.05;;;5.60;80.30;;;;;;5112963;27;20044;-78
2022/12/05 02:57:51;;;;;;;45.22;23.23;;;5.60;80.40;;;;;;5080705;28;20096;-78
2022/12/05 03:00:17;;;;;;;38.78;22.85;;;5.70;80.60;;;;;;5116060;28;20043;-78
2022/12/05 03:02:43;;;;;;;40.58;22.30;;;5.60;80.50;;;;;;5098821;28;20490;-78
2022/12/05 03:05:21;;;;;;;38.42;23.05;;;5.70;80.70;;;;;;5112219;28;20570;-78
2022/12/05 03:07:49;;;;;;;42.45;23.20;;;5.70;80.90;;;;;;5095584;28;20047;-78
2022/12/05 03:10:19;;;;;;;39.95;23.45;;;5.70;81.00;;;;;;5112037;28;20036;-78
2022/12/05 03:12:50;;;;;;;41.10;22.77;;;5.70;81.10;;;;;;5112181;28;20039;-78
2022/12/05 03:15:45;;;;;;;40.50;23.27;;;5.70;81.20;;;;;;5094960;28;20093;-78
2022/12/05 03:18:25;;;;;;;43.03;23.58;;;5.70;81.40;;;;;;5109678;28;20055;-78
2022/12/05 03:21:01;;;;;;;40.15;23.98;;;5.70;81.40;;;;;;5112014;28;20059;-78
2022/12/05 03:23:51;;;;;;;42.72;22.98;;;5.70;81.50;;;;;;5111971;28;20040;-78
2022/12/05 03:27:01;;;;;;;40.05;22.73;;;5.70;81.70;;;;;;5111739;28;20123;-78
2022/12/05 03:29:41;;;;;;;42.15;22.08;;;5.70;81.70;;;;;;5077808;28;20613;-78
2022/12/05 03:32:21;;;;;;;41.85;23.00;;;5.70;81.80;;;;;;5098837;28;20036;-78
2022/12/05 03:35:16;;;;;;;41.38;21.92;;;5.70;81.80;;;;;;5112111;28;20044;-78
2022/12/05 03:38:06;;;;;;;41.45;22.63;;;5.70;81.90;;;;;;5101436;28;20116;-79
2022/12/05 03:40:40;;;;;;;39.42;22.10;;;5.70;81.90;;;;;;5091350;28;20035;-77
2022/12/05 03:43:33;;;;;;;36.47;22.67;;;5.70;82.00;;;;;;5106184;28;20118;-77
2022/12/05 03:46:04;;;;;;;37.03;21.67;;;5.70;82.10;;;;;;5111459;28;20043;-78
2022/12/05 03:48:51;;;;;;;41.40;21.55;;;5.70;82.20;;;;;;5111574;28;20125;-77
2022/12/05 03:51:20;;;;;;;38.65;21.70;;;5.70;82.20;;;;;;5094739;28;20039;-77
2022/12/05 03:53:57;;;;;;;36.47;21.80;;;5.70;82.30;;;;;;5091792;28;20437;-77
2022/12/05 03:56:34;;;;;;;36.05;21.85;;;5.70;82.40;;;;;;5111751;28;20105;-77
2022/12/05 03:59:29;;;;;;;35.58;20.38;;;5.70;82.40;;;;;;5111843;28;20096;-77
2022/12/05 04:01:59;;;;;;;32.55;19.67;;;5.70;83.00;;;;;;5111266;28;20040;-77
2022/12/05 04:04:32;;;;;;;34.17;20.25;;;5.70;82.50;;;;;;5111494;28;20052;-77
2022/12/05 04:07:03;;;;;;;32.15;19.90;;;5.70;82.60;;;;;;5111872;28;20044;-77
2022/12/05 04:09:50;;;;;;;32.40;19.25;;;5.70;82.70;;;;;;5111703;28;20399;-78
2022/12/05 04:12:23;;;;;;;31.95;18.45;;;5.70;82.80;;;;;;5094160;28;20071;-77
2022/12/05 04:14:54;;;;;;;30.75;17.83;;;5.80;82.90;;;;;;5111433;28;20031;-77
2022/12/05 04:17:35;;;;;;;30.63;18.65;;;5.80;82.90;;;;;;5111535;28;20039;-77
2022/12/05 04:23:16;;;;;;;26.13;15.50;;;5.80;83.00;;;;;;5111217;28;20543;-77
2022/12/05 04:26:03;;;;;;;27.83;18.40;;;5.80;82.90;;;;;;5090919;28;20040;-77
2022/12/05 04:28:35;;;;;;;25.70;15.90;;;5.70;83.00;;;;;;5112884;28;20078;-77
2022/12/05 04:31:10;;;;;;;24.38;15.13;;;5.80;83.10;;;;;;5115088;28;20038;-76
2022/12/05 04:33:50;;;;;;;;;;;5.80;83.00;;;;;;5115414;28;20127;-77
2022/12/05 04:36:41;;;;;;;21.75;13.48;;;5.70;83.00;;;;;;5115513;28;19916;-77
2022/12/05 04:39:20;;;;;;;22.60;13.77;;;5.70;83.10;;;;;;5116003;28;20093;-76
2022/12/05 04:42:03;;;;;;;24.98;15.05;;;5.80;83.20;;;;;;5116067;28;20048;-69
2022/12/05 04:44:32;;;;;;;18.10;12.07;;;5.80;83.20;;;;;;5097608;28;20505;-69
2022/12/05 04:47:03;;;;;;;20.33;13.13;;;5.80;83.20;;;;;;5114501;28;20043;-69
2022/12/05 04:49:31;;;;;;;17.98;12.95;;;5.80;83.20;;;;;;5114184;28;20047;-69
2022/12/05 04:52:01;;;;;;;18.45;11.77;;;5.80;83.30;;;;;;5097248;28;20043;-69
2022/12/05 04:54:37;;;;;;;17.15;11.93;;;5.80;83.40;;;;;;5114431;28;20561;-69
2022/12/05 04:57:34;;;;;;;18.77;12.00;;;5.80;83.50;;;;;;5114693;28;20386;-69
2022/12/05 05:00:00;;;;;;;16.67;11.05;;;5.80;83.60;;;;;;5114629;28;20415;-69
2022/12/05 05:02:41;;;;;;;17.65;11.13;;;5.80;83.50;;;;;;5097447;28;20127;-69
2022/12/05 05:05:10;;;;;;;14.98;10.77;;;5.80;83.60;;;;;;5113906;28;20055;-69
2022/12/05 05:07:47;;;;;;;17.25;12.05;;;5.80;83.60;;;;;;5113850;28;20043;-69
2022/12/05 05:10:18;;;;;;;16.13;11.55;;;5.80;83.70;;;;;;5114006;28;20078;-70
2022/12/05 05:12:44;;;;;;;15.82;10.50;;;5.80;83.70;;;;;;5114211;28;20042;-69
2022/12/05 05:15:10;;;;;;;15.80;10.95;;;5.80;83.60;;;;;;5114062;28;20043;-78
2022/12/05 05:17:35;;;;;;;15.40;9.98;;;5.90;83.70;;;;;;5097164;28;20039;-77
2022/12/05 05:22:47;;;;;;;15.03;10.80;;;5.90;83.80;;;;;;5099690;28;20514;-77
2022/12/05 05:25:13;;;;;;;12.93;9.32;;;5.80;83.70;;;;;;5113447;28;20296;-77
2022/12/05 05:27:39;;;;;;;13.73;10.10;;;5.90;83.80;;;;;;5114148;28;20126;-77
2022/12/05 05:30:06;;;;;;;15.43;10.60;;;5.90;83.70;;;;;;5096705;28;20399;-77
2022/12/05 05:32:32;;;;;;;13.88;8.73;;;5.80;83.70;;;;;;5082918;28;20043;-77
2022/12/05 05:34:58;;;;;;;12.40;8.13;;;5.90;84.00;;;;;;5110494;28;20347;-76
2022/12/05 05:37:23;;;;;;;12.50;8.65;;;5.90;83.80;;;;;;5096246;28;20391;-77
2022/12/05 05:39:49;;;;;;;12.35;8.15;;;5.80;83.80;;;;;;5113669;28;20078;-77
2022/12/05 05:42:15;;;;;;;11.07;7.22;;;5.90;83.90;;;;;;5113044;28;20042;-77
2022/12/05 05:44:40;;;;;;;11.05;7.55;;;5.90;83.90;;;;;;5096459;28;20050;-69
2022/12/05 05:47:06;;;;;;;11.02;7.13;;;5.90;83.90;;;;;;5113674;28;20043;-70
2022/12/05 05:49:31;;;;;;;10.88;8.10;;;5.90;83.90;;;;;;5113661;28;20047;-69
2022/12/05 05:51:57;;;;;;;13.43;7.43;;;5.90;83.90;;;;;;5112996;28;20414;-69
2022/12/05 05:54:23;;;;;;;9.05;7.10;;;5.90;83.90;;;;;;5113566;28;20465;-70
2022/12/05 05:56:48;;;;;;;9.45;6.88;;;5.90;84.00;;;;;;5075878;28;20118;-69
2022/12/05 05:59:14;;;;;;;10.23;7.20;;;5.90;84.00;;;;;;5112107;28;20039;-69
2022/12/05 06:01:39;;;;;;;9.68;6.80;;;5.90;84.00;;;;;;5112787;28;20089;-70
2022/12/05 06:04:06;;;;;;;10.93;7.18;;;5.90;84.00;;;;;;5112612;28;20097;-69
2022/12/05 06:06:32;;;;;;;8.45;6.22;;;5.90;84.10;;;;;;5110470;28;20047;-69
2022/12/05 06:08:58;;;;;;;8.98;7.03;;;5.90;84.10;;;;;;5113016;28;20035;-69
2022/12/05 06:11:25;;;;;;;9.68;5.88;;;5.90;84.10;;;;;;5112675;28;20095;-70
2022/12/05 06:13:52;;;;;;;9.15;6.05;;;5.90;84.10;;;;;;5095938;28;20031;-70
2022/12/05 06:16:19;;;;;;;8.60;6.57;;;5.90;84.20;;;;;;5112953;28;20044;-69
2022/12/05 06:18:45;;;;;;;9.98;6.47;;;5.90;84.20;;;;;;5096063;28;20444;-69
2022/12/05 06:21:11;;;;;;;9.20;6.38;;;5.90;84.10;;;;;;5062066;28;20040;-69
2022/12/05 06:23:38;;;;;;;9.48;6.07;;;5.90;84.20;;;;;;5112313;28;20077;-70
2022/12/05 06:26:05;;;;;;;8.30;6.05;;;5.90;84.10;;;;;;5112528;28;20059;-70
2022/12/05 06:28:31;;;;;;;9.95;7.18;;;5.90;84.20;;;;;;5112583;28;20444;-70
2022/12/05 06:30:57;;;;;;;9.68;6.38;;;5.90;84.20;;;;;;5095012;28;20031;-70
2022/12/05 06:33:23;;;;;;;9.10;6.07;;;5.90;84.20;;;;;;5112500;28;20176;-70
2022/12/05 06:35:48;;;;;;;8.20;5.95;;;5.90;84.20;;;;;;5095604;28;20043;-70
2022/12/05 06:38:14;;;;;;;9.45;6.40;;;5.90;84.30;;;;;;5094149;28;20036;-78
2022/12/05 06:40:41;;;;;;;9.77;6.72;;;6.00;84.70;;;;;;5092358;28;20129;-78
2022/12/05 06:43:07;;;;;;;9.45;6.07;;;5.90;84.30;;;;;;5106775;28;20144;-78
2022/12/05 06:45:33;;;;;;;10.00;6.35;;;6.00;84.40;;;;;;5112648;28;20631;-78
2022/12/05 06:47:59;;;;;;;8.55;6.13;;;6.00;84.40;;;;;;5095653;28;20043;-77
2022/12/05 06:50:24;;;;;;;10.90;6.28;;;6.00;84.30;;;;;;5091483;28;20039;-78
2022/12/05 06:52:50;;;;;;;9.27;6.57;;;5.90;84.30;;;;;;5075190;28;20047;-78
2022/12/05 06:55:16;;;;;;;8.63;6.15;;;6.00;84.30;;;;;;5112638;28;20463;-76
2022/12/05 06:57:42;;;;;;;8.73;6.15;;;6.00;84.40;;;;;;5112113;28;20120;-78
2022/12/05 07:02:53;;;;;;;7.95;5.47;;;6.00;84.40;;;;;;5113313;28;20134;-78
2022/12/05 07:05:18;;;;;;;8.35;6.03;;;6.00;84.30;;;;;;5115584;27;20068;-77
2022/12/05 07:07:45;;;;;;;10.57;6.07;;;6.00;84.30;;;;;;5098573;28;20035;-78
2022/12/05 07:10:11;;;;;;;10.18;6.30;;;6.00;84.30;;;;;;5115269;27;20035;-78
2022/12/05 07:12:36;;;;;;;10.82;6.53;;;6.00;84.40;;;;;;5115341;28;20039;-78
2022/12/05 07:15:03;;;;;;;8.27;6.03;;;6.00;84.30;;;;;;5115331;28;20035;-78
2022/12/05 07:17:29;;;;;;;8.20;5.88;;;6.00;84.40;;;;;;5115740;28;20101;-77
2022/12/05 07:19:55;;;;;;;8.80;6.38;;;6.00;84.40;;;;;;5098336;28;20122;-77
2022/12/05 07:22:22;;;;;;;8.27;5.82;;;6.00;84.40;;;;;;5115334;28;20039;-78
2022/12/05 07:24:50;;;;;;;8.15;5.60;;;6.00;84.50;;;;;;5115059;28;20051;-77
2022/12/05 07:27:16;;;;;;;8.85;5.65;;;6.00;84.50;;;;;;5115375;28;20047;-77
2022/12/05 07:29:42;;;;;;;8.20;5.50;;;6.10;85.00;;;;;;5115272;28;20060;-78
2022/12/05 07:32:08;;;;;;;8.15;5.75;;;6.00;84.60;;;;;;5105819;27;20039;-77
2022/12/05 07:34:33;;;;;;;8.02;5.53;;;6.00;84.60;;;;;;5122230;28;20071;-69
2022/12/05 07:36:59;;;;;;;8.40;4.80;;;6.00;84.60;;;;;;5115280;28;20043;-70
2022/12/05 07:39:25;;;;;;;9.10;6.13;;;6.00;84.60;;;;;;5115444;28;20051;-70
2022/12/05 07:41:51;;;;;;;7.90;5.95;;;6.00;84.60;;;;;;5115067;28;20501;-70
2022/12/05 07:44:17;;;;;;;8.32;5.82;;;6.00;84.60;;;;;;5105428;28;20031;-70
2022/12/05 07:46:43;;;;;;;8.52;5.82;;;6.00;84.60;;;;;;5098060;28;20042;-69
2022/12/05 07:49:08;;;;;;;8.43;6.07;;;6.10;84.70;;;;;;5115173;28;20035;-78
2022/12/05 07:51:34;;;;;;;9.15;6.00;;;6.00;84.60;;;;;;5115089;28;20043;-78
2022/12/05 07:54:00;;;;;;;10.02;6.18;;;6.00;84.70;;;;;;5094803;28;20039;-78
2022/12/05 07:56:38;;;;;;;9.32;6.57;;;6.10;84.60;;;;;;5097802;28;20039;-78
2022/12/05 08:02:01;;;;;;;9.20;5.53;;;6.00;84.50;;;;;;5098629;28;20578;-78
2022/12/05 08:05:24;;;;;;;10.25;6.55;;;6.00;84.60;;;;;;5078252;28;20040;-77
2022/12/05 08:07:49;;;;;;;8.82;6.25;;;6.00;84.60;;;;;;5018337;28;20068;-78
2022/12/05 08:10:15;;;;;;;9.45;6.78;;;6.10;84.70;;;;;;5062484;28;20532;-80
2022/12/05 08:12:41;;;;;;;10.55;7.25;;;6.00;84.60;;;;;;5061983;28;20490;-80
2022/12/05 08:15:07;;;;;;;9.68;7.40;;;6.10;84.60;;;;;;5076328;28;20044;-81
2022/12/05 08:17:33;;;;;;;11.02;7.95;;;6.10;84.70;;;;;;5058224;28;20043;-80
2022/12/05 08:19:59;;;;;;;9.65;7.38;;;6.10;84.60;;;;;;5074949;28;20044;-80
2022/12/05 08:22:24;;;;;;;12.48;7.30;;;6.00;84.60;;;;;;5058451;28;20056;-80
2022/12/05 08:24:50;;;;;;;12.63;7.88;;;6.10;84.70;;;;;;5081460;28;20032;-80
2022/12/05 08:27:16;;;;;;;10.18;7.78;;;6.10;84.70;;;;;;5095060;28;20067;-80
2022/12/05 08:29:41;;;;;;;13.98;7.32;;;6.10;84.70;;;;;;5083213;28;20043;-80
2022/12/05 08:32:07;;;;;;;11.20;7.82;;;6.10;84.70;;;;;;5115405;28;20047;-80
2022/12/05 08:34:33;;;;;;;13.60;8.27;;;6.20;84.70;;;;;;5098521;28;20086;-73
2022/12/05 08:37:01;;;;;;;11.60;8.65;;;6.10;84.60;;;;;;5064260;28;20085;-73
2022/12/05 08:39:27;;;;;;;12.35;9.32;;;6.20;84.70;;;;;;5100823;28;20551;-77
2022/12/05 08:41:52;;;;;;;13.75;8.45;;;6.20;84.60;;;;;;5060937;28;20120;-70
2022/12/05 08:44:18;;;;;;;13.43;8.75;;;6.20;84.60;;;;;;5094201;28;20131;-71
2022/12/05 08:46:47;;;;;;;12.82;8.43;;;6.20;84.50;;;;;;5094478;28;20468;-70
2022/12/05 08:49:13;;;;;;;10.30;8.10;;;6.20;84.60;;;;;;5094344;28;20048;-70
2022/12/05 08:51:40;;;;;;;14.65;8.77;;;6.20;84.60;;;;;;5088807;28;20102;-71
2022/12/05 08:54:06;;;;;;;15.63;8.95;;;6.20;84.60;;;;;;5073248;28;20411;-71
2022/12/05 08:56:32;;;;;;;15.07;8.93;;;6.20;84.60;;;;;;5094261;28;20101;-71
2022/12/05 08:58:59;;;;;;;11.48;8.43;;;6.20;84.70;;;;;;5057826;28;20508;-71
2022/12/05 09:01:29;;;;;;;13.48;8.18;;;6.20;84.60;;;;;;5073722;28;20510;-79
2022/12/05 09:03:55;;;;;;;12.55;7.97;;;6.20;84.60;;;;;;5080341;28;20117;-79
2022/12/05 09:06:23;;;;;;;14.07;8.40;;;6.20;84.60;;;;;;5105438;28;20043;-80
2022/12/05 09:08:54;;;;;;;13.52;8.40;;;6.20;85.00;;;;;;5114408;28;20036;-79
2022/12/05 09:11:22;;;;;;;13.18;7.72;;;6.20;84.60;;;;;;5077212;28;20119;-79
2022/12/05 09:13:50;;;;;;;13.95;7.75;;;6.20;84.60;;;;;;5093509;28;20036;-79
2022/12/05 09:16:21;;;;;;;14.60;7.53;;;6.20;84.70;;;;;;5094066;28;20109;-80
2022/12/05 09:18:48;;;;;;;14.93;7.78;;;6.20;84.70;;;;;;5083986;28;20247;-80
2022/12/05 09:21:17;;;;;;;14.57;8.55;;;6.40;84.80;;;;;;5114770;28;20398;-80
2022/12/05 09:23:43;;;;;;;12.95;8.10;;;6.30;84.80;;;;;;5114263;28;20394;-78
2022/12/05 09:26:13;;;;;;;14.68;8.77;;;6.20;84.70;;;;;;5114636;28;20055;-80
2022/12/05 09:28:40;;;;;;;14.75;8.73;;;6.20;84.80;;;;;;5113979;28;20040;-80
2022/12/05 09:31:08;;;;;;;12.93;8.15;;;6.20;84.80;;;;;;5113764;28;20491;-72
2022/12/05 09:33:36;;;;;;;12.27;7.75;;;6.30;84.80;;;;;;5089800;28;20559;-72
2022/12/05 09:36:06;;;;;;;12.70;8.43;;;6.30;84.80;;;;;;5113645;28;20067;-80
2022/12/05 09:38:32;;;;;;;15.90;9.23;;;6.30;84.70;;;;;;5097875;28;20052;-80
2022/12/05 09:42:17;;;;;;;16.60;8.32;;;6.30;84.80;;;;;;5096959;28;20073;-80
2022/12/05 09:44:20;;;;;;;15.10;8.65;;;6.30;84.90;;;;;;5096006;28;20047;-80
2022/12/05 09:47:15;;;;;;;14.63;8.43;;;6.30;84.70;;;;;;5117677;27;20067;-80
2022/12/05 09:49:49;;;;;;;12.82;7.40;;;6.30;84.60;;;;;;5044538;28;20068;-80
2022/12/05 09:52:26;;;;;;;13.38;8.00;;;6.30;84.70;;;;;;5115331;27;20119;-78
2022/12/05 09:54:52;;;;;;;15.80;7.68;;;6.30;84.60;;;;;;5116178;27;20487;-79
2022/12/05 09:57:28;;;;;;;11.10;7.45;;;6.30;84.60;;;;;;5112780;28;20115;-79
2022/12/05 09:59:54;;;;;;;11.35;6.65;;;6.30;84.60;;;;;;5096024;28;20123;-80
2022/12/05 10:02:51;;;;;;;13.95;7.63;;;6.30;84.60;;;;;;5111636;28;20118;-80
2022/12/05 10:05:28;;;;;;;11.07;6.82;;;6.30;84.60;;;;;;5112230;28;20180;-80
2022/12/05 10:08:17;;;;;;;13.38;7.32;;;6.30;84.60;;;;;;5109574;27;20064;-79
2022/12/05 10:11:00;;;;;;;12.77;6.82;;;6.30;84.60;;;;;;5106221;28;20394;-80
2022/12/05 10:13:39;;;;;;;13.13;7.78;;;6.30;84.50;;;;;;5112933;28;20040;-79
2022/12/05 10:16:12;;;;;;;13.50;7.93;;;6.30;84.50;;;;;;5096613;28;20375;-80
2022/12/05 10:18:47;;;;;;;10.73;6.10;;;6.30;84.30;;;;;;5062669;28;20044;-80
2022/12/05 10:21:21;;;;;;;13.88;7.95;;;6.30;84.30;;;;;;5047673;28;20618;-80
2022/12/05 10:23:53;;;;;;;15.30;8.13;;;6.30;84.30;;;;;;5037918;28;20049;-79
2022/12/05 10:26:23;;;;;;;12.52;8.02;;;6.30;84.30;;;;;;5054909;28;20033;-80
2022/12/05 10:29:01;;;;;;;15.00;9.35;;;6.30;84.40;;;;;;5068632;28;20427;-80
2022/12/05 10:31:31;;;;;;;14.82;8.65;;;6.30;84.30;;;;;;5043165;28;20075;-80
2022/12/05 10:34:08;;;;;;;13.25;9.43;;;6.30;84.30;;;;;;5054027;28;20048;-80
2022/12/05 10:36:34;;;;;;;16.65;9.15;;;6.30;84.30;;;;;;5033056;28;20175;-79
2022/12/05 10:39:00;;;;;;;14.73;8.57;;;6.20;84.10;;;;;;5029625;28;20041;-72
2022/12/05 10:41:27;;;;;;;12.82;8.30;;;6.30;84.20;;;;;;5040317;28;20430;-72
2022/12/05 10:43:53;;;;;;;16.33;8.50;;;6.30;84.20;;;;;;5036856;28;20053;-80
2022/12/05 10:46:19;;;;;;;14.90;8.82;;;6.20;84.20;;;;;;5054395;28;20119;-80
2022/12/05 10:48:44;;;;;;;11.98;7.70;;;6.40;84.30;;;;;;5058572;28;20071;-72
2022/12/05 10:51:16;;;;;;;13.52;8.57;;;6.30;84.30;;;;;;5059772;28;20087;-72
2022/12/05 10:53:51;;;;;;;13.75;8.75;;;6.30;84.30;;;;;;5034078;28;20112;-72
2022/12/05 10:56:37;;;;;;;14.68;8.40;;;6.30;84.30;;;;;;5069708;28;20043;-79
2022/12/05 10:59:03;;;;;;;14.32;7.97;;;6.50;84.50;;;;;;5106928;28;20436;-71
2022/12/05 11:01:29;;;;;;;13.85;8.45;;;6.20;84.30;;;;;;5099900;28;20051;-79
2022/12/05 11:03:57;;;;;;;14.27;8.82;;;6.20;84.30;;;;;;5097224;27;20044;-79
2022/12/05 11:06:26;;;;;;;13.45;8.50;;;6.30;84.40;;;;;;5098197;27;20155;-79
2022/12/05 11:09:11;;;;;;;13.80;8.30;;;6.30;84.40;;;;;;5115798;28;20031;-79
2022/12/05 11:11:37;;;;;;;11.90;7.95;;;6.30;84.50;;;;;;5115683;28;20054;-79
2022/12/05 11:14:05;;;;;;;14.00;8.95;;;6.30;84.40;;;;;;5115837;28;20490;-79
2022/12/05 11:16:37;;;;;;;15.25;8.43;;;6.30;84.40;;;;;;5111733;27;20402;-72
2022/12/05 11:19:25;;;;;;;11.82;7.97;;;6.30;84.40;;;;;;5115111;28;20122;-71
2022/12/05 11:21:51;;;;;;;15.27;8.40;;;6.30;84.50;;;;;;5115296;28;20050;-72
2022/12/05 11:24:21;;;;;;;13.32;7.80;;;6.30;84.40;;;;;;5097934;28;20072;-72
2022/12/05 11:26:47;;;;;;;13.45;8.48;;;6.30;84.60;;;;;;5106963;28;20057;-72
2022/12/05 11:29:35;;;;;;;11.40;7.43;;;6.30;84.60;;;;;;5098455;28;20035;-72
2022/12/05 11:32:02;;;;;;;13.40;7.78;;;6.40;84.70;;;;;;5109110;28;20188;-73
2022/12/05 11:34:46;;;;;;;15.25;8.45;;;6.30;84.60;;;;;;5114002;28;20073;-73
2022/12/05 11:37:17;;;;;;;12.60;7.50;;;6.30;84.70;;;;;;5118923;27;20137;-72
2022/12/05 11:39:43;;;;;;;13.52;7.65;;;6.40;85.20;;;;;;5120784;27;20050;-72
2022/12/05 11:42:20;;;;;;;11.68;7.28;;;6.30;84.70;;;;;;5081605;28;20031;-72
2022/12/05 11:44:58;;;;;;;13.02;8.00;;;6.30;84.80;;;;;;5102912;27;20046;-72
2022/12/05 11:47:43;;;;;;;13.80;7.80;;;6.30;84.90;;;;;;5118933;27;20508;-72
2022/12/05 11:50:18;;;;;;;12.60;8.60;;;6.30;84.80;;;;;;5118740;27;20039;-73
2022/12/05 11:52:56;;;;;;;11.77;8.30;;;6.30;84.80;;;;;;5102039;27;20043;-72
2022/12/05 11:55:40;;;;;;;12.18;8.38;;;6.30;84.70;;;;;;5120989;27;20066;-73
2022/12/05 11:58:09;;;;;;;;;;;6.30;84.80;;;;;;5101420;27;20087;-72
2022/12/05 12:00:47;;;;;;;13.13;7.45;;;6.30;84.60;;;;;;5118811;27;19922;-72
2022/12/05 12:04:03;;;;;;;14.35;7.93;;;6.30;84.80;;;;;;5117201;27;20405;-72
2022/12/05 12:06:59;;;;;;;9.88;6.55;;;6.30;84.80;;;;;;4999920;28;20040;-72
2022/12/05 12:09:27;;;;;;;9.05;6.05;;;6.30;84.80;;;;;;5011264;28;20436;-80
2022/12/05 12:12:33;;;;;;;11.48;7.18;;;6.30;84.70;;;;;;5087134;27;20494;-80
2022/12/05 12:15:12;;;;;;;10.55;6.28;;;6.30;84.80;;;;;;5066399;27;20043;-80
2022/12/05 12:18:03;;;;;;;11.07;6.15;;;6.30;84.80;;;;;;5118681;27;20080;-80
2022/12/05 12:20:33;;;;;;;10.10;6.32;;;6.30;84.90;;;;;;5118764;27;20039;-77
2022/12/05 12:23:17;;;;;;;10.18;6.47;;;6.30;85.00;;;;;;5118466;27;20035;-77
2022/12/05 12:26:19;;;;;;;9.93;6.25;;;6.30;85.10;;;;;;5121587;27;20543;-78
2022/12/05 12:29:11;;;;;;;8.18;5.28;;;6.30;85.00;;;;;;5093913;27;20092;-77
2022/12/05 12:32:04;;;;;;;12.63;6.63;;;6.40;85.00;;;;;;5093645;27;20039;-77
2022/12/05 12:34:36;;;;;;;8.95;5.57;;;6.30;85.00;;;;;;5101124;27;20039;-77
2022/12/05 12:37:36;;;;;;;8.57;5.50;;;6.30;85.00;;;;;;5112806;27;20550;-77
2022/12/05 12:40:27;;;;;;;10.38;5.15;;;6.30;85.00;;;;;;5118140;27;20077;-78
2022/12/05 12:43:02;;;;;;;8.15;5.05;;;6.40;85.10;;;;;;5092431;27;20035;-78
2022/12/05 12:46:01;;;;;;;8.02;5.45;;;6.30;85.00;;;;;;5100891;27;20055;-78
2022/12/05 12:48:42;;;;;;;8.35;5.90;;;6.40;85.10;;;;;;5117220;27;20031;-70
2022/12/05 12:51:11;;;;;;;9.10;5.28;;;6.40;85.00;;;;;;5110391;27;20416;-70
2022/12/05 12:54:03;;;;;;;9.05;5.25;;;6.40;85.00;;;;;;5117498;27;20126;-70
2022/12/05 12:56:56;;;;;;;11.23;4.97;;;6.40;85.00;;;;;;5117547;27;20043;-70
2022/12/05 12:59:51;;;;;;;8.65;4.72;;;6.40;85.00;;;;;;5117450;27;20050;-70
2022/12/05 13:02:51;;;;;;;6.95;4.90;;;6.40;85.00;;;;;;5100455;27;20085;-67
2022/12/05 13:05:30;;;;;;;9.13;5.00;;;6.40;84.90;;;;;;5087837;28;20079;-69
2022/12/05 13:08:03;;;;;;;7.63;4.80;;;6.40;84.80;;;;;;5114784;27;20040;-69
2022/12/05 13:10:36;;;;;;;8.52;4.80;;;6.40;84.80;;;;;;5114936;27;20135;-68
2022/12/05 13:13:05;;;;;;;8.13;4.95;;;6.40;84.90;;;;;;5096949;28;20435;-68
2022/12/05 13:15:39;;;;;;;8.13;4.90;;;6.40;84.80;;;;;;5114095;28;20046;-69
2022/12/05 13:18:06;;;;;;;;;;;6.40;84.80;;;;;;5113975;28;20032;-68
2022/12/05 13:20:34;;;;;;;9.68;5.50;;;6.40;84.60;;;;;;5110793;28;19916;-69
2022/12/05 13:23:03;;;;;;;8.35;4.70;;;6.30;84.70;;;;;;5104455;27;20133;-68